sensor_id;sensor_type;location;lat;lon;timestamp;temperature;humidity
66026;SHT31;56312;55.976;37.136;2023-04-25T00:01:53;10.10;60.00
66026;SHT31;56312;55.976;37.136;2023-04-25T00:07:00;10.07;60.08
66026;SHT31;56312;55.976;37.136;2023-04-25T00:12:09;10.10;60.10
66026;SHT31;56312;55.976;37.136;2023-04-25T00:17:16;10.13;59.97
66026;SHT31;56312;55.976;37.136;2023-04-25T00:22:25;10.11;59.84
66026;SHT31;56312;55.976;37.136;2023-04-25T00:27:31;10.17;59.56
66026;SHT31;56312;55.976;37.136;2023-04-25T00:32:38;10.03;59.72
66026;SHT31;56312;55.976;37.136;2023-04-25T00:37:44;9.94;60.13
66026;SHT31;56312;55.976;37.136;2023-04-25T00:42:52;9.96;60.40
66026;SHT31;56312;55.976;37.136;2023-04-25T00:47:59;9.93;60.58
66026;SHT31;56312;55.976;37.136;2023-04-25T00:53:06;9.72;60.68
66026;SHT31;56312;55.976;37.136;2023-04-25T00:58:13;9.55;60.93
66026;SHT31;56312;55.976;37.136;2023-04-25T01:03:19;9.53;60.86
66026;SHT31;56312;55.976;37.136;2023-04-25T01:08:26;9.34;60.85
66026;SHT31;56312;55.976;37.136;2023-04-25T01:13:33;9.32;61.38
66026;SHT31;56312;55.976;37.136;2023-04-25T01:18:41;9.45;61.07
66026;SHT31;56312;55.976;37.136;2023-04-25T01:23:48;9.42;61.00
66026;SHT31;56312;55.976;37.136;2023-04-25T01:28:55;9.45;61.26
66026;SHT31;56312;55.976;37.136;2023-04-25T01:34:01;9.53;61.17
66026;SHT31;56312;55.976;37.136;2023-04-25T01:39:08;9.56;61.29
66026;SHT31;56312;55.976;37.136;2023-04-25T01:44:15;9.52;61.36
66026;SHT31;56312;55.976;37.136;2023-04-25T01:49:21;9.43;61.57
66026;SHT31;56312;55.976;37.136;2023-04-25T01:54:28;9.29;61.91
66026;SHT31;56312;55.976;37.136;2023-04-25T01:59:34;9.08;62.20
66026;SHT31;56312;55.976;37.136;2023-04-25T02:04:40;9.04;62.35
66026;SHT31;56312;55.976;37.136;2023-04-25T02:09:46;9.04;62.34
66026;SHT31;56312;55.976;37.136;2023-04-25T02:14:53;9.00;62.38
66026;SHT31;56312;55.976;37.136;2023-04-25T02:19:59;8.99;62.39
66026;SHT31;56312;55.976;37.136;2023-04-25T02:25:06;9.01;62.37
66026;SHT31;56312;55.976;37.136;2023-04-25T02:30:13;9.01;62.39
66026;SHT31;56312;55.976;37.136;2023-04-25T02:35:19;9.07;62.23
66026;SHT31;56312;55.976;37.136;2023-04-25T02:40:26;9.03;62.24
66026;SHT31;56312;55.976;37.136;2023-04-25T02:45:32;9.08;62.32
66026;SHT31;56312;55.976;37.136;2023-04-25T02:50:38;9.21;62.31
66026;SHT31;56312;55.976;37.136;2023-04-25T02:55:45;9.38;62.16
66026;SHT31;56312;55.976;37.136;2023-04-25T03:00:51;9.50;61.97
66026;SHT31;56312;55.976;37.136;2023-04-25T03:05:57;9.66;61.88
66026;SHT31;56312;55.976;37.136;2023-04-25T03:11:04;9.77;61.86
66026;SHT31;56312;55.976;37.136;2023-04-25T03:16:10;9.87;61.85
66026;SHT31;56312;55.976;37.136;2023-04-25T03:21:17;10.05;61.80
66026;SHT31;56312;55.976;37.136;2023-04-25T03:26:23;11.59;61.57
66026;SHT31;56312;55.976;37.136;2023-04-25T03:31:30;10.93;60.70
66026;SHT31;56312;55.976;37.136;2023-04-25T03:36:36;10.44;60.82
66026;SHT31;56312;55.976;37.136;2023-04-25T03:41:43;10.30;60.89
66026;SHT31;56312;55.976;37.136;2023-04-25T03:46:49;10.31;61.00
66026;SHT31;56312;55.976;37.136;2023-04-25T03:51:55;10.32;61.14
66026;SHT31;56312;55.976;37.136;2023-04-25T03:57:02;10.51;61.20
66026;SHT31;56312;55.976;37.136;2023-04-25T04:02:08;10.92;60.95
66026;SHT31;56312;55.976;37.136;2023-04-25T04:07:14;10.68;60.92
66026;SHT31;56312;55.976;37.136;2023-04-25T04:12:21;10.49;60.99
66026;SHT31;56312;55.976;37.136;2023-04-25T04:17:27;10.95;61.46
66026;SHT31;56312;55.976;37.136;2023-04-25T04:22:33;11.35;61.13
66026;SHT31;56312;55.976;37.136;2023-04-25T04:27:40;11.31;60.87
66026;SHT31;56312;55.976;37.136;2023-04-25T04:32:47;11.45;60.89
66026;SHT31;56312;55.976;37.136;2023-04-25T04:37:54;11.75;60.72
66026;SHT31;56312;55.976;37.136;2023-04-25T04:43:01;11.86;60.82
66026;SHT31;56312;55.976;37.136;2023-04-25T04:48:08;12.12;60.54
66026;SHT31;56312;55.976;37.136;2023-04-25T04:53:14;12.47;60.71
66026;SHT31;56312;55.976;37.136;2023-04-25T04:58:21;12.68;60.49
66026;SHT31;56312;55.976;37.136;2023-04-25T05:03:27;12.86;60.45
66026;SHT31;56312;55.976;37.136;2023-04-25T05:08:34;12.92;60.29
66026;SHT31;56312;55.976;37.136;2023-04-25T05:13:40;13.03;60.22
66026;SHT31;56312;55.976;37.136;2023-04-25T05:18:47;13.19;60.19
66026;SHT31;56312;55.976;37.136;2023-04-25T05:23:53;13.39;60.13
66026;SHT31;56312;55.976;37.136;2023-04-25T05:29:00;13.50;59.94
66026;SHT31;56312;55.976;37.136;2023-04-25T05:34:06;13.77;59.93
66026;SHT31;56312;55.976;37.136;2023-04-25T05:39:13;13.98;59.68
66026;SHT31;56312;55.976;37.136;2023-04-25T05:44:19;14.05;59.54
66026;SHT31;56312;55.976;37.136;2023-04-25T05:49:25;14.36;59.47
66026;SHT31;56312;55.976;37.136;2023-04-25T05:54:32;14.55;59.19
66026;SHT31;56312;55.976;37.136;2023-04-25T05:59:38;14.71;59.18
66026;SHT31;56312;55.976;37.136;2023-04-25T06:04:45;14.84;59.03
66026;SHT31;56312;55.976;37.136;2023-04-25T06:09:51;15.05;58.88
66026;SHT31;56312;55.976;37.136;2023-04-25T06:14:57;15.28;58.84
66026;SHT31;56312;55.976;37.136;2023-04-25T06:20:04;15.52;58.71
66026;SHT31;56312;55.976;37.136;2023-04-25T06:25:12;15.74;58.32
66026;SHT31;56312;55.976;37.136;2023-04-25T06:30:18;15.77;58.14
66026;SHT31;56312;55.976;37.136;2023-04-25T06:35:30;16.02;58.18
66026;SHT31;56312;55.976;37.136;2023-04-25T06:40:37;16.29;58.16
66026;SHT31;56312;55.976;37.136;2023-04-25T06:45:43;16.42;57.82
66026;SHT31;56312;55.976;37.136;2023-04-25T06:50:49;16.60;57.56
66026;SHT31;56312;55.976;37.136;2023-04-25T06:55:56;16.79;57.47
66026;SHT31;56312;55.976;37.136;2023-04-25T07:01:02;16.91;57.21
66026;SHT31;56312;55.976;37.136;2023-04-25T07:06:09;17.17;57.19
66026;SHT31;56312;55.976;37.136;2023-04-25T07:11:15;17.56;57.17
66026;SHT31;56312;55.976;37.136;2023-04-25T07:16:21;17.68;56.40
66026;SHT31;56312;55.976;37.136;2023-04-25T07:21:28;17.73;56.10
66026;SHT31;56312;55.976;37.136;2023-04-25T07:26:34;17.98;55.85
66026;SHT31;56312;55.976;37.136;2023-04-25T07:31:40;18.24;55.74
66026;SHT31;56312;55.976;37.136;2023-04-25T07:36:47;18.45;55.19
66026;SHT31;56312;55.976;37.136;2023-04-25T07:41:53;18.71;55.33
66026;SHT31;56312;55.976;37.136;2023-04-25T07:47:00;18.66;54.98
66026;SHT31;56312;55.976;37.136;2023-04-25T07:52:06;18.68;54.55
66026;SHT31;56312;55.976;37.136;2023-04-25T07:57:13;18.89;54.44
66026;SHT31;56312;55.976;37.136;2023-04-25T08:02:19;19.23;54.61
66026;SHT31;56312;55.976;37.136;2023-04-25T08:07:26;19.41;54.13
66026;SHT31;56312;55.976;37.136;2023-04-25T08:12:32;19.17;53.67
66026;SHT31;56312;55.976;37.136;2023-04-25T08:17:39;19.16;54.09
66026;SHT31;56312;55.976;37.136;2023-04-25T08:22:45;19.75;53.75
66026;SHT31;56312;55.976;37.136;2023-04-25T08:27:51;19.78;53.17
66026;SHT31;56312;55.976;37.136;2023-04-25T08:32:58;19.02;52.41
66026;SHT31;56312;55.976;37.136;2023-04-25T08:38:04;18.44;52.52
66026;SHT31;56312;55.976;37.136;2023-04-25T08:43:13;19.11;52.87
66026;SHT31;56312;55.976;37.136;2023-04-25T08:48:21;19.03;52.53
66026;SHT31;56312;55.976;37.136;2023-04-25T08:53:31;19.09;52.69
66026;SHT31;56312;55.976;37.136;2023-04-25T08:58:38;19.51;52.11
66026;SHT31;56312;55.976;37.136;2023-04-25T09:03:45;19.21;52.21
66026;SHT31;56312;55.976;37.136;2023-04-25T09:08:53;19.59;52.52
66026;SHT31;56312;55.976;37.136;2023-04-25T09:14:18;19.83;52.29
66026;SHT31;56312;55.976;37.136;2023-04-25T09:19:29;19.23;51.80
66026;SHT31;56312;55.976;37.136;2023-04-25T09:24:42;18.76;51.58
66026;SHT31;56312;55.976;37.136;2023-04-25T09:29:57;19.03;52.28
66026;SHT31;56312;55.976;37.136;2023-04-25T09:35:04;19.31;52.31
66026;SHT31;56312;55.976;37.136;2023-04-25T09:40:11;19.72;52.09
66026;SHT31;56312;55.976;37.136;2023-04-25T09:45:18;20.26;51.88
66026;SHT31;56312;55.976;37.136;2023-04-25T09:50:25;19.95;51.19
66026;SHT31;56312;55.976;37.136;2023-04-25T09:55:32;19.39;51.25
66026;SHT31;56312;55.976;37.136;2023-04-25T10:00:39;18.85;51.03
66026;SHT31;56312;55.976;37.136;2023-04-25T10:05:48;18.58;51.33
66026;SHT31;56312;55.976;37.136;2023-04-25T10:10:55;18.49;51.43
66026;SHT31;56312;55.976;37.136;2023-04-25T10:16:03;18.53;51.45
66026;SHT31;56312;55.976;37.136;2023-04-25T10:21:10;18.68;51.40
66026;SHT31;56312;55.976;37.136;2023-04-25T10:26:17;18.55;51.28
66026;SHT31;56312;55.976;37.136;2023-04-25T10:31:23;18.31;51.35
66026;SHT31;56312;55.976;37.136;2023-04-25T10:36:33;18.21;51.51
66026;SHT31;56312;55.976;37.136;2023-04-25T10:41:59;18.04;51.35
66026;SHT31;56312;55.976;37.136;2023-04-25T10:47:08;18.04;51.57
66026;SHT31;56312;55.976;37.136;2023-04-25T10:52:26;17.97;51.48
66026;SHT31;56312;55.976;37.136;2023-04-25T10:57:44;17.86;51.39
66026;SHT31;56312;55.976;37.136;2023-04-25T11:02:59;17.76;51.53
66026;SHT31;56312;55.976;37.136;2023-04-25T11:08:11;17.63;51.57
66026;SHT31;56312;55.976;37.136;2023-04-25T11:13:20;17.53;51.66
66026;SHT31;56312;55.976;37.136;2023-04-25T11:18:27;17.61;51.77
66026;SHT31;56312;55.976;37.136;2023-04-25T11:23:33;17.72;51.71
66026;SHT31;56312;55.976;37.136;2023-04-25T11:28:39;17.94;51.65
66026;SHT31;56312;55.976;37.136;2023-04-25T11:33:46;18.15;51.52
66026;SHT31;56312;55.976;37.136;2023-04-25T11:38:53;18.51;51.45
66026;SHT31;56312;55.976;37.136;2023-04-25T11:44:00;18.89;51.66
66026;SHT31;56312;55.976;37.136;2023-04-25T11:49:06;18.92;51.26
66026;SHT31;56312;55.976;37.136;2023-04-25T11:54:13;18.82;51.03
66026;SHT31;56312;55.976;37.136;2023-04-25T11:59:23;18.92;51.29
66026;SHT31;56312;55.976;37.136;2023-04-25T12:04:31;19.21;51.15
66026;SHT31;56312;55.976;37.136;2023-04-25T12:09:38;19.28;50.91
66026;SHT31;56312;55.976;37.136;2023-04-25T12:14:47;19.39;50.82
66026;SHT31;56312;55.976;37.136;2023-04-25T12:19:54;19.57;50.92
66026;SHT31;56312;55.976;37.136;2023-04-25T12:25:01;19.28;50.82
66026;SHT31;56312;55.976;37.136;2023-04-25T12:30:09;19.00;50.58
66026;SHT31;56312;55.976;37.136;2023-04-25T12:35:16;18.99;50.79
66026;SHT31;56312;55.976;37.136;2023-04-25T12:40:23;19.09;51.13
66026;SHT31;56312;55.976;37.136;2023-04-25T12:45:29;19.02;50.68
66026;SHT31;56312;55.976;37.136;2023-04-25T12:50:36;18.63;50.72
66026;SHT31;56312;55.976;37.136;2023-04-25T12:55:42;18.51;50.90
66026;SHT31;56312;55.976;37.136;2023-04-25T13:00:49;18.95;51.23
66026;SHT31;56312;55.976;37.136;2023-04-25T13:05:55;19.20;50.92
66026;SHT31;56312;55.976;37.136;2023-04-25T13:11:02;18.95;50.99
66026;SHT31;56312;55.976;37.136;2023-04-25T13:16:09;18.93;51.01
66026;SHT31;56312;55.976;37.136;2023-04-25T13:21:16;18.79;50.96
66026;SHT31;56312;55.976;37.136;2023-04-25T13:26:22;18.61;50.74
66026;SHT31;56312;55.976;37.136;2023-04-25T13:31:29;18.49;51.01
66026;SHT31;56312;55.976;37.136;2023-04-25T13:36:35;18.40;51.18
66026;SHT31;56312;55.976;37.136;2023-04-25T13:41:42;18.23;51.07
66026;SHT31;56312;55.976;37.136;2023-04-25T13:46:48;18.04;51.13
66026;SHT31;56312;55.976;37.136;2023-04-25T13:51:54;17.94;51.21
66026;SHT31;56312;55.976;37.136;2023-04-25T13:57:01;17.83;51.04
66026;SHT31;56312;55.976;37.136;2023-04-25T14:02:08;17.80;51.12
66026;SHT31;56312;55.976;37.136;2023-04-25T14:07:14;17.75;51.08
66026;SHT31;56312;55.976;37.136;2023-04-25T14:12:23;17.62;51.11
66026;SHT31;56312;55.976;37.136;2023-04-25T14:17:31;17.53;51.22
66026;SHT31;56312;55.976;37.136;2023-04-25T14:22:37;17.43;51.44
66026;SHT31;56312;55.976;37.136;2023-04-25T14:27:47;17.41;51.46
66026;SHT31;56312;55.976;37.136;2023-04-25T14:32:55;17.32;51.64
66026;SHT31;56312;55.976;37.136;2023-04-25T14:38:02;17.29;51.77
66026;SHT31;56312;55.976;37.136;2023-04-25T14:43:08;17.25;51.77
66026;SHT31;56312;55.976;37.136;2023-04-25T14:48:14;17.22;51.78
66026;SHT31;56312;55.976;37.136;2023-04-25T14:53:22;17.18;51.78
66026;SHT31;56312;55.976;37.136;2023-04-25T14:58:29;17.14;51.98
66026;SHT31;56312;55.976;37.136;2023-04-25T15:03:35;17.15;51.81
66026;SHT31;56312;55.976;37.136;2023-04-25T15:08:41;17.17;51.73
66026;SHT31;56312;55.976;37.136;2023-04-25T15:13:48;17.21;51.70
66026;SHT31;56312;55.976;37.136;2023-04-25T15:18:54;17.22;51.74
66026;SHT31;56312;55.976;37.136;2023-04-25T15:24:00;17.21;51.77
66026;SHT31;56312;55.976;37.136;2023-04-25T15:29:07;17.18;51.62
66026;SHT31;56312;55.976;37.136;2023-04-25T15:34:13;17.07;51.79
66026;SHT31;56312;55.976;37.136;2023-04-25T15:39:20;16.99;52.07
66026;SHT31;56312;55.976;37.136;2023-04-25T15:44:26;16.85;52.10
66026;SHT31;56312;55.976;37.136;2023-04-25T15:49:32;16.76;51.96
66026;SHT31;56312;55.976;37.136;2023-04-25T15:54:38;16.64;51.98
66026;SHT31;56312;55.976;37.136;2023-04-25T15:59:46;16.55;52.07
66026;SHT31;56312;55.976;37.136;2023-04-25T16:04:53;16.35;52.21
66026;SHT31;56312;55.976;37.136;2023-04-25T16:09:59;16.22;52.32
66026;SHT31;56312;55.976;37.136;2023-04-25T16:15:06;16.08;52.43
66026;SHT31;56312;55.976;37.136;2023-04-25T16:20:14;15.96;52.68
66026;SHT31;56312;55.976;37.136;2023-04-25T16:25:21;15.76;52.81
66026;SHT31;56312;55.976;37.136;2023-04-25T16:30:27;15.66;52.90
66026;SHT31;56312;55.976;37.136;2023-04-25T16:35:33;15.52;53.10
66026;SHT31;56312;55.976;37.136;2023-04-25T16:40:40;15.33;53.54
66026;SHT31;56312;55.976;37.136;2023-04-25T16:45:46;15.09;54.00
66026;SHT31;56312;55.976;37.136;2023-04-25T16:50:53;14.78;54.34
66026;SHT31;56312;55.976;37.136;2023-04-25T16:55:59;14.61;54.64
66026;SHT31;56312;55.976;37.136;2023-04-25T17:01:05;14.39;54.83
66026;SHT31;56312;55.976;37.136;2023-04-25T17:06:12;13.94;54.60
66026;SHT31;56312;55.976;37.136;2023-04-25T17:11:19;13.72;54.98
66026;SHT31;56312;55.976;37.136;2023-04-25T17:16:36;13.55;55.31
66026;SHT31;56312;55.976;37.136;2023-04-25T17:21:43;13.32;55.73
66026;SHT31;56312;55.976;37.136;2023-04-25T17:26:49;13.05;56.19
66026;SHT31;56312;55.976;37.136;2023-04-25T17:31:56;12.85;56.47
66026;SHT31;56312;55.976;37.136;2023-04-25T17:37:02;12.69;56.66
66026;SHT31;56312;55.976;37.136;2023-04-25T17:42:09;12.44;56.86
66026;SHT31;56312;55.976;37.136;2023-04-25T17:47:16;12.33;57.09
66026;SHT31;56312;55.976;37.136;2023-04-25T17:52:23;12.14;57.17
66026;SHT31;56312;55.976;37.136;2023-04-25T17:57:29;12.06;57.14
66026;SHT31;56312;55.976;37.136;2023-04-25T18:02:36;11.76;57.23
66026;SHT31;56312;55.976;37.136;2023-04-25T18:07:43;11.39;57.30
66026;SHT31;56312;55.976;37.136;2023-04-25T18:12:49;11.24;57.70
66026;SHT31;56312;55.976;37.136;2023-04-25T18:17:55;11.26;58.06
66026;SHT31;56312;55.976;37.136;2023-04-25T18:23:02;11.20;58.16
66026;SHT31;56312;55.976;37.136;2023-04-25T18:28:09;11.14;58.40
66026;SHT31;56312;55.976;37.136;2023-04-25T18:33:15;11.10;58.54
66026;SHT31;56312;55.976;37.136;2023-04-25T18:38:23;11.07;58.59
66026;SHT31;56312;55.976;37.136;2023-04-25T18:43:30;10.97;58.66
66026;SHT31;56312;55.976;37.136;2023-04-25T18:48:36;10.89;59.01
66026;SHT31;56312;55.976;37.136;2023-04-25T18:53:42;10.76;59.02
66026;SHT31;56312;55.976;37.136;2023-04-25T18:58:49;10.62;59.22
66026;SHT31;56312;55.976;37.136;2023-04-25T19:03:56;10.41;59.53
66026;SHT31;56312;55.976;37.136;2023-04-25T19:09:02;10.28;59.64
66026;SHT31;56312;55.976;37.136;2023-04-25T19:14:09;10.27;59.71
66026;SHT31;56312;55.976;37.136;2023-04-25T19:19:16;10.31;59.83
66026;SHT31;56312;55.976;37.136;2023-04-25T19:24:22;10.28;59.97
66026;SHT31;56312;55.976;37.136;2023-04-25T19:29:28;10.21;59.98
66026;SHT31;56312;55.976;37.136;2023-04-25T19:34:37;10.24;60.20
66026;SHT31;56312;55.976;37.136;2023-04-25T19:39:43;10.14;60.31
66026;SHT31;56312;55.976;37.136;2023-04-25T19:44:52;10.10;60.35
66026;SHT31;56312;55.976;37.136;2023-04-25T19:49:58;10.04;60.44
66026;SHT31;56312;55.976;37.136;2023-04-25T19:55:05;9.97;60.71
66026;SHT31;56312;55.976;37.136;2023-04-25T20:00:15;9.86;60.74
66026;SHT31;56312;55.976;37.136;2023-04-25T20:05:21;9.65;60.87
66026;SHT31;56312;55.976;37.136;2023-04-25T20:10:28;9.58;61.25
66026;SHT31;56312;55.976;37.136;2023-04-25T20:15:35;9.43;61.28
66026;SHT31;56312;55.976;37.136;2023-04-25T20:20:42;9.40;61.60
66026;SHT31;56312;55.976;37.136;2023-04-25T20:25:48;9.86;61.71
66026;SHT31;56312;55.976;37.136;2023-04-25T20:30:55;10.01;61.40
66026;SHT31;56312;55.976;37.136;2023-04-25T20:36:02;10.22;61.47
66026;SHT31;56312;55.976;37.136;2023-04-25T20:41:08;10.18;61.14
66026;SHT31;56312;55.976;37.136;2023-04-25T20:46:14;10.03;61.06
66026;SHT31;56312;55.976;37.136;2023-04-25T20:51:21;10.00;61.46
66026;SHT31;56312;55.976;37.136;2023-04-25T20:56:28;10.32;61.74
66026;SHT31;56312;55.976;37.136;2023-04-25T21:01:35;10.53;61.58
66026;SHT31;56312;55.976;37.136;2023-04-25T21:06:41;10.48;61.50
66026;SHT31;56312;55.976;37.136;2023-04-25T21:11:47;10.46;61.44
66026;SHT31;56312;55.976;37.136;2023-04-25T21:16:53;10.40;61.58
66026;SHT31;56312;55.976;37.136;2023-04-25T21:22:00;10.42;61.60
66026;SHT31;56312;55.976;37.136;2023-04-25T21:27:08;10.46;61.58
66026;SHT31;56312;55.976;37.136;2023-04-25T21:32:14;10.35;61.79
66026;SHT31;56312;55.976;37.136;2023-04-25T21:37:25;10.22;61.84
66026;SHT31;56312;55.976;37.136;2023-04-25T21:42:32;10.14;61.89
66026;SHT31;56312;55.976;37.136;2023-04-25T21:47:38;10.00;62.06
66026;SHT31;56312;55.976;37.136;2023-04-25T21:52:44;9.84;62.23
66026;SHT31;56312;55.976;37.136;2023-04-25T21:57:51;9.73;62.33
66026;SHT31;56312;55.976;37.136;2023-04-25T22:02:58;9.55;62.07
66026;SHT31;56312;55.976;37.136;2023-04-25T22:08:05;9.39;62.42
66026;SHT31;56312;55.976;37.136;2023-04-25T22:13:11;9.39;62.63
66026;SHT31;56312;55.976;37.136;2023-04-25T22:18:17;9.32;62.66
66026;SHT31;56312;55.976;37.136;2023-04-25T22:23:24;9.18;62.66
66026;SHT31;56312;55.976;37.136;2023-04-25T22:28:31;9.05;62.80
66026;SHT31;56312;55.976;37.136;2023-04-25T22:33:38;8.81;62.96
66026;SHT31;56312;55.976;37.136;2023-04-25T22:38:44;8.72;63.21
66026;SHT31;56312;55.976;37.136;2023-04-25T22:43:50;8.67;63.29
66026;SHT31;56312;55.976;37.136;2023-04-25T22:48:58;8.69;63.48
66026;SHT31;56312;55.976;37.136;2023-04-25T22:54:04;8.70;63.42
66026;SHT31;56312;55.976;37.136;2023-04-25T22:59:11;8.66;63.45
66026;SHT31;56312;55.976;37.136;2023-04-25T23:04:17;8.67;63.70
66026;SHT31;56312;55.976;37.136;2023-04-25T23:09:24;8.66;63.72
66026;SHT31;56312;55.976;37.136;2023-04-25T23:14:31;8.66;64.04
66026;SHT31;56312;55.976;37.136;2023-04-25T23:19:38;8.64;64.16
66026;SHT31;56312;55.976;37.136;2023-04-25T23:24:44;8.69;64.29
66026;SHT31;56312;55.976;37.136;2023-04-25T23:29:51;8.64;64.46
66026;SHT31;56312;55.976;37.136;2023-04-25T23:34:59;8.77;64.47
66026;SHT31;56312;55.976;37.136;2023-04-25T23:40:07;8.77;64.70
66026;SHT31;56312;55.976;37.136;2023-04-25T23:45:14;8.80;64.73
66026;SHT31;56312;55.976;37.136;2023-04-25T23:50:21;8.77;64.86
66026;SHT31;56312;55.976;37.136;2023-04-25T23:55:27;8.81;65.13
